createdAt,value
2023-03-10T00:05:21.162Z,97454.77
2023-03-10T00:10:31.856Z,97451.95
2023-03-10T00:15:44.819Z,97451.52
2023-03-10T00:21:03.743Z,97444.27
2023-03-10T00:26:42.647Z,97433.06
2023-03-10T00:32:18.545Z,97421.79
2023-03-10T00:37:42.792Z,97414.06
2023-03-10T00:43:08.594Z,97400.58
2023-03-10T00:48:28.880Z,97403.20
2023-03-10T00:54:08.024Z,97396.30
2023-03-10T01:07:26.172Z,97372.02
2023-03-10T01:13:01.538Z,97363.48
2023-03-10T01:18:05.902Z,97365.45
2023-03-10T01:23:23.957Z,97361.61
2023-03-10T01:28:27.456Z,97353.98
2023-03-10T01:33:30.780Z,97352.73
2023-03-10T01:38:36.195Z,97356.34
2023-03-10T01:43:41.892Z,97340.16
2023-03-10T01:48:45.473Z,97339.20
2023-03-10T01:53:48.705Z,97330.12
2023-03-10T01:58:53.021Z,97333.28
2023-03-10T02:04:02.165Z,97337.02
2023-03-10T02:09:06.065Z,97319.95
2023-03-10T02:14:09.441Z,97318.74
2023-03-10T02:19:28.663Z,97321.74
2023-03-10T02:25:10.261Z,97320.71
2023-03-10T02:30:24.996Z,97311.85
2023-03-10T02:35:28.600Z,97317.09
2023-03-10T02:40:45.963Z,97317.23
2023-03-10T02:45:54.150Z,97311.93
2023-03-10T02:51:00.454Z,97302.04
2023-03-10T02:56:03.965Z,97295.36
2023-03-10T03:01:08.606Z,97292.41
2023-03-10T03:06:15.356Z,97283.02
2023-03-10T03:11:20.371Z,97276.81
2023-03-10T03:16:24.125Z,97267.76
2023-03-10T03:21:31.112Z,97266.59
2023-03-10T03:26:35.248Z,97259.87
2023-03-10T03:31:48.837Z,97250.24
2023-03-10T03:36:58.259Z,97248.30
2023-03-10T03:42:06.017Z,97247.23
2023-03-10T03:47:17.156Z,97247.03
2023-03-10T03:52:20.789Z,97246.94
2023-03-10T03:57:24.444Z,97241.90
2023-03-10T04:02:28.950Z,97235.88
2023-03-10T04:07:32.722Z,97232.35
2023-03-10T04:12:36.083Z,97230.02
2023-03-10T04:17:39.677Z,97216.73
2023-03-10T04:22:43.329Z,97204.74
2023-03-10T04:27:46.805Z,97198.20
2023-03-10T04:32:50.353Z,97195.98
2023-03-10T04:37:54.296Z,97198.56
2023-03-10T04:43:00.167Z,97193.44
2023-03-10T04:48:04.087Z,97177.73
2023-03-10T04:53:07.155Z,97169.85
2023-03-10T04:58:10.201Z,97160.42
2023-03-10T05:03:14.034Z,97164.44
2023-03-10T05:08:17.721Z,97165.92
2023-03-10T05:13:20.863Z,97161.88
2023-03-10T05:18:24.158Z,97164.97
2023-03-10T05:23:27.998Z,97161.30
2023-03-10T05:28:32.125Z,97157.98
2023-03-10T05:33:35.624Z,97156.60
2023-03-10T05:38:39.260Z,97153.73
2023-03-10T05:43:43.358Z,97151.70
2023-03-10T05:48:47.744Z,97139.05
2023-03-10T05:53:51.192Z,97134.34
2023-03-10T05:58:58.424Z,97128.70
2023-03-10T06:04:06.583Z,97121.08
2023-03-10T06:09:09.773Z,97114.24
2023-03-10T06:14:12.918Z,97101.15
2023-03-10T06:19:16.053Z,97096.44
2023-03-10T06:24:19.360Z,97093.48
2023-03-10T06:29:22.604Z,97088.17
2023-03-10T06:35:23.611Z,97083.84
2023-03-10T06:40:26.628Z,97077.43
2023-03-10T06:45:29.888Z,97077.77
2023-03-10T06:50:32.971Z,97076.02
2023-03-10T06:55:36.956Z,97071.96
2023-03-10T07:00:40.114Z,97064.95
2023-03-10T07:05:43.286Z,97058.34
2023-03-10T07:10:46.509Z,97045.85
2023-03-10T07:15:49.661Z,97038.20
2023-03-10T07:20:54.451Z,97029.28
2023-03-10T07:25:57.908Z,97023.33
2023-03-10T07:31:12.354Z,97016.20
2023-03-10T07:36:18.691Z,97009.29
2023-03-10T07:41:22.992Z,97004.48
2023-03-10T07:46:26.193Z,97000.52
2023-03-10T07:51:29.284Z,96992.54
2023-03-10T07:56:32.367Z,96986.97
2023-03-10T08:01:35.574Z,96985.23
2023-03-10T08:06:38.749Z,96981.58
2023-03-10T08:11:41.865Z,96971.20
2023-03-10T08:16:44.974Z,96962.27
2023-03-10T08:21:48.489Z,96953.52
2023-03-10T08:26:51.685Z,96942.88
2023-03-10T08:31:54.890Z,96935.45
2023-03-10T08:36:59.351Z,96926.27
2023-03-10T08:42:02.518Z,96918.48
2023-03-10T08:47:06.333Z,96914.13
2023-03-10T08:52:09.558Z,96905.40
2023-03-10T08:57:12.607Z,96900.07
2023-03-10T09:02:15.754Z,96899.41
2023-03-10T09:07:19.250Z,96901.83
2023-03-10T09:12:22.383Z,96901.59
2023-03-10T09:17:25.393Z,96901.28
2023-03-10T09:22:28.621Z,96904.95
2023-03-10T09:27:32.111Z,96903.38
2023-03-10T09:32:35.275Z,96901.70
2023-03-10T09:37:38.669Z,96897.77
2023-03-10T09:43:00.124Z,96894.28
2023-03-10T09:48:13.821Z,96888.42
2023-03-10T09:53:36.263Z,96886.91
2023-03-10T09:58:45.880Z,96880.10
2023-03-10T10:18:38.328Z,96859.00
2023-03-10T10:23:47.909Z,96848.31
2023-03-10T10:29:00.345Z,96847.96
2023-03-10T10:34:39.272Z,96829.73
2023-03-10T10:39:43.574Z,96822.66
2023-03-10T10:44:47.720Z,96814.77
2023-03-10T10:49:51.074Z,96811.50
2023-03-10T10:54:59.194Z,96806.23
2023-03-10T11:00:28.753Z,96789.77
2023-03-10T11:05:39.160Z,96781.00
2023-03-10T11:10:42.817Z,96774.46
2023-03-10T11:15:56.236Z,96766.25
2023-03-10T11:21:12.739Z,96762.19
2023-03-10T11:26:54.854Z,96753.65
2023-03-10T11:32:09.730Z,96741.63
2023-03-10T11:37:25.242Z,96732.94
2023-03-10T11:42:34.138Z,96733.10
2023-03-10T11:47:43.385Z,96732.57
2023-03-10T11:52:49.913Z,96724.14
2023-03-10T11:57:57.717Z,96721.69
2023-03-10T12:03:19.849Z,96716.52
2023-03-10T12:08:25.803Z,96706.89
2023-03-10T12:13:41.049Z,96708.34
2023-03-10T12:18:44.386Z,96702.27
2023-03-10T12:23:50.815Z,96705.39
2023-03-10T12:29:22.221Z,96697.40
2023-03-10T12:34:32.539Z,96690.63
2023-03-10T12:39:39.454Z,96680.87
2023-03-10T12:44:48.614Z,96680.36
2023-03-10T12:50:03.416Z,96678.95
2023-03-10T12:55:27.981Z,96689.91
2023-03-10T13:00:45.030Z,96690.34
2023-03-10T13:06:15.445Z,96694.29
2023-03-10T13:11:18.864Z,96688.04
2023-03-10T13:16:22.692Z,96693.58
2023-03-10T13:21:31.242Z,96692.54
2023-03-10T13:26:37.051Z,96687.55
2023-03-10T13:31:40.663Z,96690.54
2023-03-10T13:36:44.314Z,96682.44
2023-03-10T13:41:50.731Z,96686.27
2023-03-10T13:46:57.255Z,96690.97
2023-03-10T13:52:10.218Z,96694.80
2023-03-10T13:57:19.873Z,96698.81
2023-03-10T14:02:36.292Z,96694.23
2023-03-10T14:07:40.730Z,96687.30
2023-03-10T14:12:47.270Z,96686.11
2023-03-10T14:18:20.557Z,96686.37
2023-03-10T14:23:28.026Z,96683.43
2023-03-10T14:28:49.702Z,96672.02
2023-03-10T14:33:53.350Z,96673.77
2023-03-10T14:38:56.924Z,96664.59
2023-03-10T14:44:01.448Z,96660.36
2023-03-10T14:49:08.520Z,96655.27
2023-03-10T14:54:18.999Z,96649.90
2023-03-10T14:59:22.462Z,96640.77
2023-03-10T15:04:25.827Z,96634.09
2023-03-10T15:09:29.120Z,96631.39
2023-03-10T15:14:32.470Z,96631.83
2023-03-10T15:19:36.214Z,96631.95
2023-03-10T15:24:39.787Z,96633.60
2023-03-10T15:29:43.255Z,96625.20
2023-03-10T15:34:46.662Z,96627.00
2023-03-10T15:39:50.310Z,96621.48
2023-03-10T15:44:53.998Z,96620.13
2023-03-10T15:49:57.956Z,96616.50
2023-03-10T15:55:01.800Z,96606.48
2023-03-10T16:00:06.023Z,96608.88
2023-03-10T16:05:14.859Z,96611.95
2023-03-10T16:10:21.146Z,96614.95
2023-03-10T16:15:27.790Z,96611.60
2023-03-10T16:20:31.460Z,96612.05
2023-03-10T16:25:34.916Z,96619.63
2023-03-10T16:35:39.068Z,96625.19
2023-03-10T16:40:50.450Z,96628.11
2023-03-10T16:45:53.828Z,96624.09
2023-03-10T16:50:57.337Z,96629.83
2023-03-10T16:56:04.567Z,96635.27
2023-03-10T17:01:08.064Z,96639.27
2023-03-10T17:06:14.262Z,96641.69
2023-03-10T17:11:28.627Z,96641.56
2023-03-10T17:16:33.688Z,96640.65
2023-03-10T17:21:39.535Z,96648.36
2023-03-10T17:26:43.273Z,96650.04
2023-03-10T17:31:50.919Z,96658.14
2023-03-10T17:36:54.550Z,96678.74
2023-03-10T17:41:58.130Z,96682.67
2023-03-10T17:47:01.641Z,96675.63
2023-03-10T17:52:06.515Z,96678.14
2023-03-10T17:57:10.128Z,96678.48
2023-03-10T18:02:13.695Z,96669.71
2023-03-10T18:07:17.397Z,96675.21
2023-03-10T18:12:22.192Z,96683.79
2023-03-10T18:17:27.086Z,96689.71
2023-03-10T18:22:30.418Z,96699.69
2023-03-10T18:27:34.907Z,96708.27
2023-03-10T18:32:38.515Z,96702.29
2023-03-10T18:37:42.113Z,96701.42
2023-03-10T18:42:45.721Z,96689.36
2023-03-10T18:47:49.248Z,96677.98
2023-03-10T18:52:53.232Z,96664.73
2023-03-10T18:57:57.178Z,96642.61
2023-03-10T19:03:00.977Z,96631.70
2023-03-10T19:08:04.872Z,96638.94
2023-03-10T19:13:11.941Z,96634.13
2023-03-10T19:18:18.635Z,96640.27
2023-03-10T19:23:22.967Z,96636.95
2023-03-10T19:28:26.491Z,96639.38
2023-03-10T19:33:30.171Z,96609.39
2023-03-10T19:38:37.745Z,96604.36
2023-03-10T19:43:42.342Z,96604.96
2023-03-10T19:48:46.541Z,96595.64
2023-03-10T19:53:52.717Z,96586.45
2023-03-10T19:58:57.421Z,96578.08
2023-03-10T20:04:03.204Z,96589.05
2023-03-10T20:09:10.778Z,96601.98
2023-03-10T20:14:14.493Z,96603.31
2023-03-10T20:19:19.785Z,96588.94
2023-03-10T20:24:23.487Z,96583.61
2023-03-10T20:35:29.237Z,96576.15
2023-03-10T20:40:33.078Z,96574.02
2023-03-10T20:45:37.441Z,96577.92
2023-03-10T20:50:41.365Z,96567.14
2023-03-10T20:55:45.140Z,96563.95
2023-03-10T21:00:48.946Z,96558.50
2023-03-10T21:05:54.156Z,96554.57
2023-03-10T21:10:57.841Z,96546.10
2023-03-10T21:16:01.386Z,96539.77
2023-03-10T21:21:09.817Z,96531.65
2023-03-10T21:26:21.172Z,96526.91
2023-03-10T21:31:24.644Z,96521.27
2023-03-10T21:36:28.189Z,96509.95
2023-03-10T21:41:31.971Z,96499.77
2023-03-10T21:46:36.102Z,96495.81
2023-03-10T21:51:39.754Z,96492.52
2023-03-10T21:56:43.398Z,96488.93
2023-03-10T22:01:47.316Z,96478.66
2023-03-10T22:06:50.651Z,96473.98
2023-03-10T22:11:54.225Z,96469.88
2023-03-10T22:16:57.856Z,96466.61
2023-03-10T22:22:02.812Z,96461.14
2023-03-10T22:27:06.582Z,96461.34
2023-03-10T22:35:19.274Z,96458.55
2023-03-10T22:40:25.447Z,96451.91
2023-03-10T22:45:31.621Z,96448.05
2023-03-10T22:50:39.036Z,96437.19
2023-03-10T22:55:44.031Z,96428.77
2023-03-10T23:00:47.672Z,96426.04
2023-03-10T23:06:03.591Z,96433.73
2023-03-10T23:11:12.019Z,96428.65
2023-03-10T23:16:18.298Z,96423.66
2023-03-10T23:21:22.289Z,96423.00
2023-03-10T23:26:27.479Z,96424.92
2023-03-10T23:31:30.846Z,96427.06
2023-03-10T23:36:34.756Z,96428.52
2023-03-10T23:41:38.461Z,96426.23
2023-03-10T23:46:42.436Z,96428.69
2023-03-10T23:51:46.194Z,96427.15
2023-03-10T23:56:51.525Z,96429.98
